• Join FlightAware (Why Join?)
  • Login
  • US Flag GB Flag 
00:11 EDT


 

Airport Tracker/Info


-or-


 

Live Flight TrackerFlight Track Log ✈ UAL5832 ✈ 21-Apr-2013 ✈ KABE - KORD

Flight Track Log - Related Links

Times and Time Zones

All times are in EDT time to prevent confusion due to time zone crossing. See the UAL5832 flight status page for this flight to view local times or setup timezone preferences in your user account.

Time Position Orientation Groundspeed Altitude Reporting Facility
EDT Latitude Longitude Course Direction KTS MPH feet Rate Location/Type
17:26 40.7189 -75.4475 264° West 214 246 6,300  Level New York Center
17:27 40.7075 -75.5236 259° West 209 241 8,100 1,680 Climbing New York Center
17:28 40.6931 -75.6264 260° West 253 291 9,800 1,140 Climbing New York Center
17:29 40.6778 -75.7403 260° West 297 342 10,500 1,200 Climbing New York Center
17:30 40.5955 -76.0252 264° West  Level FlightAware Approximate
17:30 40.6628 -75.8486 260° West 338 389 12,200  Level New York Center
17:31 40.5863 -76.1446 264° West  Level FlightAware Approximate
17:31 40.6431 -75.9703 258° West 346 398 14,000  Level New York Center
17:32 40.6264 -76.1058 261° West 351 404 15,600 1,320 Climbing New York Center
17:33 40.6083 -76.2303 259° West 351 404 16,800 1,200 Climbing New York Center
17:34 40.5900 -76.3544 259° West 351 404 18,000 840 Climbing New York Center
17:35 40.5719 -76.4706 258° West 351 404 18,500 840 Climbing New York Center
17:36 40.5544 -76.6139 261° West 356 410 19,800 1,200 Climbing New York Center
17:37 40.5667 -76.7489 277° West 361 415 21,000 1,260 Climbing New York Center
17:38 40.5783 -76.8836 277° West 371 427 22,300 1,380 Climbing New York Center
17:39 40.5903 -77.0161 277° West 371 427 23,800 1,440 Climbing New York Center
17:40 40.6000 -77.1453 276° West 366 421 25,300 1,500 Climbing New York Center
17:41 40.6119 -77.2697 277° West 361 415 26,800 1,380 Climbing New York Center
17:42 40.6242 -77.3911 278° West 349 402 28,200 1,140 Climbing New York Center
17:43 40.6339 -77.5125 276° West 344 396 29,200 960 Climbing New York Center
17:45 40.6478 -77.6958 276° West 340 391 30,800 1,020 Climbing Cleveland Center
17:46 40.6592 -77.8186 277° West 340 391 31,900 600 Climbing Cleveland Center
17:47 40.6744 -77.9439 279° West 346 398 32,000  Climbing Cleveland Center
17:48 40.6944 -78.0800 281° West 368 423 32,000  Level Cleveland Center
17:49 40.7139 -78.2189 281° West 380 437 32,000  Level Cleveland Center
17:50 40.7333 -78.3553 281° West 385 443 32,000  Level Cleveland Center
17:51 40.7506 -78.4919 279° West 385 443 32,000  Level Cleveland Center
17:52 40.7675 -78.6311 279° West 385 443 32,000  Level Cleveland Center
17:53 40.7889 -78.7842 281° West 385 443 32,000  Level Cleveland Center
17:54 40.8078 -78.9289 280° West 390 449 32,000  Level Cleveland Center
17:55 40.8283 -79.0547 282° West 390 449 32,000  Level Cleveland Center
17:56 40.8447 -79.1997 279° West 390 449 32,000  Level Cleveland Center
17:57 40.8650 -79.3422 281° West 395 455 32,000  Level Cleveland Center
17:58 40.8833 -79.4872 280° West 395 455 32,000  Level Cleveland Center
17:59 40.8992 -79.6325 278° West 400 460 32,000  Level Cleveland Center
18:00 40.9169 -79.7781 279° West 405 466 32,000  Level Cleveland Center
18:01 40.9344 -79.9208 279° West 405 466 32,000  Level Cleveland Center
18:02 40.9542 -80.0689 280° West 405 466 32,000  Level Cleveland Center
18:03 40.9714 -80.2119 279° West 405 466 32,000  Level Cleveland Center
18:04 40.9883 -80.3575 279° West 405 466 32,000  Level Cleveland Center
18:05 41.0053 -80.5033 279° West 410 472 32,000  Level Cleveland Center
18:06 41.0219 -80.6492 279° West 410 472 32,000  Level Cleveland Center
18:07 41.0383 -80.7950 279° West 410 472 32,000  Level Cleveland Center
18:08 41.0525 -80.9411 277° West 410 472 32,000  Level Cleveland Center
18:09 41.0625 -81.1036 275° West 410 472 32,000  Level Cleveland Center
18:10 41.0700 -81.2497 274° West 404 465 32,000  Level Cleveland Center
18:11 41.0775 -81.3764 275° West 404 465 32,000  Level Cleveland Center
18:12 41.0869 -81.5225 275° West 404 465 32,000  Level Cleveland Center
18:13 41.0958 -81.6686 275° West 404 465 32,000  Level Cleveland Center
18:14 41.1047 -81.8286 274° West 404 465 32,000  Level Cleveland Center
18:15 41.1133 -81.9750 275° West 404 465 32,000  Level Cleveland Center
18:16 41.1219 -82.1211 275° West 399 459 32,000  Level Cleveland Center
18:17 41.1303 -82.2703 274° West 404 465 32,000  Level Cleveland Center
18:18 41.1386 -82.4167 274° West 404 465 32,000  Level Cleveland Center
18:19 41.1464 -82.5658 274° West 404 465 32,000  Level Cleveland Center
18:20 41.1519 -82.7147 273° West 404 465 32,000  Level Cleveland Center
18:21 41.1600 -82.8475 275° West 404 465 32,000  Level Cleveland Center
18:22 41.1672 -82.9967 274° West 404 465 32,000  Level Cleveland Center
18:23 41.1764 -83.1489 275° West 404 465 32,000  Level Cleveland Center
18:24 41.1811 -83.3117 272° West 404 465 32,000  Level Cleveland Center
18:25 41.1878 -83.4611 273° West 404 465 32,000  Level Cleveland Center
18:26 41.1944 -83.6131 273° West 404 465 32,000  Level Cleveland Center
18:27 41.2031 -83.7569 275° West 404 465 32,000  Level Cleveland Center
18:28 41.2094 -83.8956 274° West 404 465 32,000  Level Cleveland Center
18:30 41.2261 -84.2572 274° West 409 471 32,000  Level Chicago Center
18:31 41.2292 -84.4400 271° West 412 474 32,000  Level Chicago Center
18:32 41.2353 -84.5919 273° West 412 474 32,000  Level Chicago Center
18:33 41.2417 -84.7425 273° West 410 472 32,000  Level Chicago Center
18:34 41.2464 -84.8942 272° West 410 472 32,000  Level Chicago Center
18:35 41.2522 -85.0458 273° West 410 472 32,000  Level Chicago Center
18:36 41.2575 -85.1978 273° West 410 472 32,000 -300 Level Chicago Center
18:37 41.2628 -85.3511 273° West 413 475 31,400 -1,200 Descending Chicago Center
18:38 41.2683 -85.5333 272° West 410 472 29,600 -1,620 Descending Chicago Center
18:39 41.2731 -85.6850 272° West 408 470 28,100 -1,320 Descending Chicago Center
18:40 41.2769 -85.8444 272° West 426 490 26,900 -1,260 Descending Chicago Center
18:41 41.2822 -86.0039 273° West 428 493 25,600 -960 Descending Chicago Center
18:42 41.3142 -86.1564 286° West 427 491 25,000 -300 Descending Chicago Center
18:43 41.3514 -86.3058 288° West 426 490 25,000  Level Chicago Center
18:45 41.3886 -86.4536 289° West 421 484 25,000 -1,140 Level Chicago Center
18:46 41.4322 -86.6331 288° West 423 487 22,700 -2,460 Descending Chicago Center
18:47 41.4650 -86.7594 289° West 414 476 20,000 -3,060 Descending Chicago Center
18:48 41.5039 -86.9222 288° West 391 450 16,400 -3,120 Descending Chicago Center
18:49 41.5361 -87.0550 288° West 381 438 13,600 -2,100 Descending Chicago Center
18:50 41.5683 -87.1844 288° West 373 429 12,100 -1,140 Descending Chicago Center
18:50 41.5833 -87.2500 287° West 351 404 12,000 -360 Descending Chicago TRACON
18:51 41.6500 -87.3500 312° West 353 406 11,600 -600 Descending Chicago TRACON
18:52 41.6744 -87.3964 305° West 351 404 11,100 -360 Descending Chicago Center
18:53 41.7447 -87.5142 309° West 343 395 11,000 -60 Descending Chicago Center
18:54 41.8050 -87.6131 309° West 345 397 11,000  Level Chicago Center
18:54 41.8333 -87.6500 316° Northwest 350 403 11,000 -180 Level Chicago TRACON
18:55 41.8667 -87.7500 294° West 335 386 10,800 -720 Descending Chicago TRACON
18:56 41.8833 -87.8667 281° West 286 329 9,600 -1,140 Descending Chicago TRACON
18:57 41.8747 -87.9306 260° West 279 321 8,800 -1,140 Descending Chicago Center
18:58 41.8714 -88.0444 268° West 263 303 7,600 -900 Descending Chicago Center
18:59 41.8697 -88.1242 268° West 232 267 7,000 -960 Descending Chicago Center
19:00 41.8744 -88.1997 275° West 216 249 5,700 -1,380 Descending Chicago Center
19:01 41.9311 -88.1839 12° North 232 267 4,200 -1,080 Descending Chicago Center
19:02 41.9667 -88.1167 55° Northeast 168 193 3,500 -780 Descending Chicago TRACON
19:03 41.9667 -88.0667 90° East 149 171 2,600 -780 Descending Chicago TRACON
19:04 41.9667 -88.0167 90° East 143 165 2,000 -720 Descending Chicago TRACON
19:05 41.9667 -87.9667 90° East 130 150 1,200 -840 Descending Chicago TRACON
19:07 41.9667 -87.9000 77° East  Level FlightAware Approximate